Terminal Aerodrome Forecast
Issued by NWS

Home | Current Version | Previous Version | Text Only | Print | Product List | Glossary On
Versions: 1 2 3 4 5 6 7 8 9 10 11 12 13 14
000
FTUS42 KTBW 300700 AAA
TAFPIE
TAF AMD
KPIE 300701Z 3007/3106 VRB04KT 4SM BR FEW250
      TEMPO 3007/3010 1SM BR SCT007
     FM301300 31007KT P6SM FEW025 SCT250
     FM301700 33011KT P6SM SCT030 BKN250=

USA.gov is the U.S. government's official web portal to all federal, state and local government web resources and services.